• Join FlightAware (Why Join?)
  • Login
  • US Flag 
11:12AM EDT


 

Airport Tracker/Info


-or-


 

Live Flight TrackerFlight Track Log ✈ N498QS ✈ 01-May-2013 ✈ KPDK - KSFO

Flight Track Log - Related Links

Times and Time Zones

All times are in EDT time to prevent confusion due to time zone crossing. See the N498QS flight status page for this flight to view local times or setup timezone preferences in your user account.

Time Position Orientation Groundspeed Altitude Reporting Facility
EDT Latitude Longitude Course Direction KTS MPH feet Rate Location/Type
09:31AM 33.9000 -84.2833 15° North 176 203 2,100  Level Atlanta TRACON
09:32AM 33.9500 -84.2667 15° North 208 239 4,400 2,460 Climbing Atlanta TRACON
09:33AM 34.0167 -84.2667 360° North 237 273 7,100 2,400 Climbing Atlanta TRACON
09:34AM 33.9919 -84.3869 256° West 270 311 10,300 2,100 Climbing Atlanta Center
09:35AM 33.9564 -84.4794 245° Southwest 295 339 12,200 1,680 Climbing Atlanta Center
09:36AM 33.9308 -84.5972 255° West 351 404 13,700 1,740 Climbing Atlanta Center
09:37AM 33.9178 -84.7072 262° West 373 429 15,700 2,100 Climbing Atlanta Center
09:38AM 33.9022 -84.8572 263° West 391 450 17,900 2,040 Climbing Atlanta Center
09:39AM 33.8908 -84.9872 264° West 405 466 19,800 1,800 Climbing Atlanta Center
09:40AM 33.8750 -85.1247 262° West 410 472 21,600 1,740 Climbing Atlanta Center
09:41AM 33.8694 -85.2647 267° West 417 480 23,300 1,620 Climbing Atlanta Center
09:42AM 33.8661 -85.3922 268° West 427 491 24,900 1,440 Climbing Atlanta Center
09:43AM 33.8625 -85.5372 268° West 427 491 26,200 1,260 Climbing Atlanta Center
09:44AM 33.8564 -85.6822 267° West 432 497 27,500 1,320 Climbing Atlanta Center
09:45AM 33.8519 -85.8397 268° West 442 509 28,900 1,380 Climbing Atlanta Center
09:46AM 33.8478 -85.9872 268° West 442 509 30,300 1,500 Climbing Atlanta Center
09:47AM 33.8433 -86.1347 268° West 442 509 32,000 1,440 Climbing Atlanta Center
09:48AM 33.8364 -86.2822 267° West 442 509 33,200 1,500 Climbing Atlanta Center
09:49AM 33.8336 -86.4272 269° West 437 503 35,100 2,220 Climbing Atlanta Center
09:50AM 33.8289 -86.5594 268° West 426 490 37,700 2,100 Climbing Atlanta Center
09:51AM 33.8222 -86.6842 266° West 398 458 39,300 1,140 Climbing Atlanta Center
09:52AM 33.8194 -86.8067 268° West 380 437 40,000 300 Climbing Atlanta Center
09:53AM 33.8125 -86.9339 266° West 375 432 40,000  Level Atlanta Center
09:54AM 33.8092 -87.0664 268° West 387 445 40,000  Level Atlanta Center
09:56AM 33.7967 -87.2928 266° West 391 450 40,000  Level Memphis Center
09:57AM 33.7997 -87.4175 272° West 397 457 40,000  Level Memphis Center
09:58AM 33.8111 -87.5522 276° West 404 465 40,000 60 Level Memphis Center
09:59AM 33.8372 -87.6864 283° West 409 471 40,200 300 Climbing Memphis Center
10:00AM 33.8669 -87.8206 285° West 414 476 40,600 360 Climbing Memphis Center
10:01AM 33.8928 -87.9600 283° West 419 482 41,000 360 Climbing Memphis Center
10:02AM 33.9206 -88.0992 284° West 425 489 41,400 360 Climbing Memphis Center
10:03AM 33.9481 -88.2414 283° West 435 501 41,800 300 Climbing Memphis Center
10:04AM 33.9753 -88.3833 283° West 435 501 42,000 60 Climbing Memphis Center
10:05AM 34.0025 -88.5256 283° West 435 501 42,000  Level Memphis Center
10:06AM 34.0339 -88.6653 285° West 435 501 42,000  Level Memphis Center
10:07AM 34.0608 -88.8103 283° West 435 501 42,000  Level Memphis Center
10:08AM 34.0875 -88.9425 284° West 425 489 42,000  Level Memphis Center
10:09AM 34.1139 -89.0853 283° West 430 495 42,000  Level Memphis Center
10:10AM 34.1403 -89.2278 283° West 430 495 42,100 60 Climbing Memphis Center
10:11AM 34.1686 -89.3706 284° West 430 495 42,200 60 Climbing Memphis Center
10:12AM 34.1969 -89.5108 284° West 430 495 42,300 60 Climbing Memphis Center
10:13AM 34.2228 -89.6539 282° West 430 495 42,400 60 Climbing Memphis Center
10:14AM 34.2508 -89.7992 283° West 430 495 42,500 60 Climbing Memphis Center
10:15AM 34.2742 -89.9300 282° West 435 501 42,600 60 Climbing Memphis Center
10:16AM 34.3017 -90.0756 283° West 441 507 42,700 60 Climbing Memphis Center
10:17AM 34.3292 -90.2189 283° West 446 513 42,800 60 Climbing Memphis Center
10:18AM 34.3542 -90.3622 282° West 446 513 42,900 60 Climbing Memphis Center
10:19AM 34.3814 -90.5031 283° West 446 513 43,000  Climbing Memphis Center
10:20AM 34.4122 -90.6617 283° West 446 513 43,000  Level Memphis Center
10:21AM 34.4369 -90.8078 282° West 446 513 43,000  Level Memphis Center
10:22AM 34.4636 -90.9492 283° West 446 513 43,000  Level Memphis Center
10:23AM 34.4878 -91.0956 281° West 446 513 43,000  Level Memphis Center
10:24AM 34.5139 -91.2394 282° West 446 513 43,000  Level Memphis Center
10:25AM 34.5400 -91.3833 282° West 446 513 43,000  Level Memphis Center
10:26AM 34.5639 -91.5247 282° West 446 513 43,000  Level Memphis Center
10:27AM 34.5914 -91.6742 283° West 442 509 43,000  Level Memphis Center
10:28AM 34.6111 -91.8006 281° West 442 509 43,000  Level Memphis Center
10:29AM 34.6364 -91.9472 282° West 442 509 43,000  Level Memphis Center
10:30AM 34.6675 -92.1044 284° West 442 509 43,000  Level Memphis Center
10:31AM 34.6906 -92.2514 281° West 436 502 43,000  Level Memphis Center
10:32AM 34.7092 -92.3933 279° West 436 502 43,000  Level Memphis Center
10:33AM 34.7297 -92.5353 280° West 436 502 43,000  Level Memphis Center
10:34AM 34.7500 -92.6825 280° West 436 502 43,000  Level Memphis Center
10:35AM 34.7722 -92.8297 280° West 436 502 43,000  Level Memphis Center
10:36AM 34.7922 -92.9769 279° West 436 502 43,000  Level Memphis Center
10:37AM 34.8100 -93.1192 279° West 436 502 43,000  Level Memphis Center
10:38AM 34.8336 -93.2692 281° West 449 517 43,000  Level Memphis Center
10:39AM 34.8511 -93.4167 278° West 449 517 43,000  Level Memphis Center
10:40AM 34.8725 -93.5592 280° West 449 517 43,000  Level Memphis Center
10:41AM 34.8917 -93.7067 279° West 449 517 43,000  Level Memphis Center
10:42AM 34.9106 -93.8492 279° West 449 517 43,000  Level Memphis Center
10:43AM 34.9294 -93.9944 279° West 444 511 43,000  Level Memphis Center
10:44AM 34.9478 -94.1447 279° West 444 511 43,000  Level Memphis Center
10:45AM 34.9664 -94.2872 279° West 449 517 43,000  Level Memphis Center
10:46AM 34.9844 -94.4353 279° West 449 517 43,000  Level Memphis Center
10:46AM 34.9881 -94.4714 277° West 440 506 43,000  Level Fort Worth Center
10:47AM 35.0039 -94.6203 277° West 435 501 43,000  Level Fort Worth Center
10:48AM 35.0236 -94.7642 280° West 435 501 43,000  Level Fort Worth Center
10:49AM 35.0433 -94.9106 279° West 435 501 43,000  Level Fort Worth Center
10:50AM 35.0672 -95.0569 281° West 441 507 43,000  Level Fort Worth Center
10:51AM 35.0906 -95.2036 281° West 447 514 43,000  Level Fort Worth Center
10:53AM 35.1489 -95.4303 288° West 442 509 43,000  Level Kansas City Center
10:53AM 35.1644 -95.5014 285° West 447 514 43,000  Level Fort Worth Center
10:54AM 35.1997 -95.6403 287° West 441 507 43,000  Level Fort Worth Center
10:55AM 35.2350 -95.7817 287° West 436 502 43,000  Level Fort Worth Center
10:56AM 35.2681 -95.9186 287° West 436 502 43,000  Level Fort Worth Center
10:57AM 35.3031 -96.0578 287° West 436 502 43,000  Level Fort Worth Center
10:59AM 35.3653 -96.3056 287° West 436 502 43,000  Level Kansas City Center
11:00AM 35.4069 -96.4786 287° West 440 506 43,000  Level Kansas City Center
11:01AM 35.4419 -96.6231 287° West 443 510 43,000  Level Kansas City Center
11:02AM 35.4764 -96.7667 286° West 442 509 43,000  Level Kansas City Center
11:03AM 35.5106 -96.9100 286° West 441 507 43,000  Level Kansas City Center
11:04AM 35.5242 -96.9675 286° West 442 509 43,000  Level Kansas City Center
11:05AM 35.5592 -97.1089 287° West 440 506 43,000  Level Kansas City Center
11:06AM 35.5994 -97.2792 286° West 441 507 43,000  Level Kansas City Center
11:07AM 35.6333 -97.4222 286° West 444 511 43,000  Level Kansas City Center
11:08AM 35.6672 -97.5678 286° West 446 513 43,000  Level Kansas City Center
11:09AM 35.7000 -97.7136 286° West 446 513 43,000  Level Kansas City Center
11:10AM 35.7394 -97.8867 286° West 443 510 43,000  Level Kansas City Center
11:11AM 35.7717 -98.0300 286° West 439 505 43,000  Level Kansas City Center
11:12AM 35.8058 -98.1797 286° West 440 506 43,000  Level Kansas City Center
11:13AM 35.8381 -98.3264 285° West 441 507 43,000  Level Kansas City Center
11:14AM 35.8703 -98.4719 285° West 441 507 43,000  Level Kansas City Center
11:15AM 35.9028 -98.6175 285° West 440 506 43,000  Level Kansas City Center
11:16AM 35.9397 -98.7839 285° West 439 505 43,000  Level Kansas City Center
11:17AM 35.9706 -98.9272 285° West 436 502 43,000  Level Kansas City Center
11:18AM 36.0017 -99.0711 285° West 435 501 43,000  Level Kansas City Center
11:19AM 36.0342 -99.2122 286° West 432 497 43,000  Level Kansas City Center
11:20AM 36.0656 -99.3556 285° West 432 497 43,000  Level Kansas City Center
11:21AM 36.0997 -99.5269 284° West 435 501 43,000  Level Kansas City Center
11:22AM 36.1308 -99.6722 285° West 436 502 43,000  Level Kansas City Center
11:24AM 36.1611 -99.8194 284° West 439 505 43,000  Level Kansas City Center
11:25AM 36.1911 -99.9661 284° West 440 506 43,000  Level Kansas City Center
11:26AM 36.2233 -100.1144 285° West 443 510 43,000  Level Kansas City Center
11:27AM 36.2544 -100.2606 285° West 440 506 43,000  Level Kansas City Center
11:28AM 36.2836 -100.4061 284° West 437 503 43,000  Level Kansas City Center
11:29AM 36.3183 -100.5792 284° West 432 497 43,000  Level Kansas City Center
11:30AM 36.3444 -100.7094 284° West 429 494 43,000  Level Kansas City Center
11:31AM 36.3772 -100.8744 284° West 431 496 43,000  Level Kansas City Center
11:32AM 36.4050 -101.0153 284° West 426 490 43,000  Level Kansas City Center
11:33AM 36.4358 -101.1683 284° West 428 493 43,000  Level Kansas City Center
11:34AM 36.4633 -101.3075 284° West 431 496 43,000  Level Kansas City Center
11:35AM 36.4942 -101.4689 283° West 432 497 43,000  Level Albuquerque Center
11:36AM 36.5219 -101.6136 283° West 422 486 43,000  Level Albuquerque Center
11:37AM 36.5489 -101.7500 284° West 413 475 43,000  Level Albuquerque Center
11:38AM 36.5736 -101.8844 283° West 406 467 43,000  Level Albuquerque Center
11:39AM 36.6022 -102.0350 283° West 400 460 43,000  Level Albuquerque Center
11:40AM 36.6278 -102.1642 284° West 401 461 43,000  Level Albuquerque Center
11:41AM 36.6547 -102.3167 282° West 406 467 43,000  Level Albuquerque Center
11:42AM 36.6814 -102.4536 284° West 408 470 43,000  Level Albuquerque Center
11:43AM 36.7069 -102.5917 283° West 403 464 43,000  Level Albuquerque Center
11:44AM 36.7311 -102.7272 283° West 400 460 43,000  Level Albuquerque Center
11:45AM 36.7556 -102.8600 283° West 394 453 43,000  Level Albuquerque Center
11:46AM 36.7803 -102.9964 283° West 399 459 43,000  Level Albuquerque Center
11:47AM 36.8081 -103.1547 282° West 399 459 43,000  Level Albuquerque Center
11:48AM 36.8328 -103.2897 283° West 397 457 43,000  Level Albuquerque Center
11:49AM 36.8567 -103.4247 283° West 396 456 43,000  Level Albuquerque Center
11:50AM 36.8806 -103.5600 282° West 396 456 43,000  Level Albuquerque Center
11:51AM 36.9036 -103.6956 282° West 397 457 43,000  Level Albuquerque Center
11:53AM 36.9275 -103.8350 282° West 404 465 43,000  Level Albuquerque Center
11:54AM 36.9556 -103.9989 282° West 409 471 43,000  Level Albuquerque Center
11:55AM 36.9794 -104.1367 282° West 406 467 43,000  Level Albuquerque Center
11:56AM 37.0028 -104.2761 282° West 407 468 43,000  Level Albuquerque Center
11:57AM 37.0267 -104.4156 282° West 407 468 43,000  Level Albuquerque Center
11:58AM 37.0506 -104.5547 282° West 406 467 43,000  Level Albuquerque Center
11:59AM 37.0719 -104.6947 281° West 407 468 43,000  Level Albuquerque Center
12:00PM 37.0942 -104.8294 282° West 398 458 43,000  Level Albuquerque Center
12:01PM 37.1203 -104.9861 282° West 393 452 43,000  Level Albuquerque Center
12:02PM 37.1428 -105.1264 281° West 404 465 43,000  Level Albuquerque Center
12:03PM 37.1656 -105.2706 281° West 414 476 43,000  Level Albuquerque Center
12:04PM 37.1881 -105.4158 281° West 420 483 43,000  Level Albuquerque Center
12:05PM 37.2133 -105.5697 282° West 423 487 43,000  Level Denver Center
12:06PM 37.2392 -105.7314 281° West 425 489 43,000  Level Denver Center
12:07PM 37.2597 -105.8633 281° West 409 471 43,000  Level Denver Center
12:08PM 37.2822 -106.0100 281° West 386 444 43,000  Level Denver Center
12:09PM 37.3017 -106.1350 281° West 383 441 43,000  Level Denver Center
12:10PM 37.3228 -106.2814 280° West 382 440 43,000  Level Denver Center
12:11PM 37.3425 -106.4108 281° West 390 449 43,000 -120 Level Denver Center
12:12PM 37.3658 -106.5672 281° West 404 465 42,800 -600 Descending Denver Center
12:13PM 37.3869 -106.7058 281° West 420 483 41,800 -1,020 Descending Denver Center
12:14PM 37.4089 -106.8592 280° West 400 460 40,700 -900 Descending Denver Center
12:15PM 37.4264 -106.9833 280° West 382 440 40,000 -360 Descending Denver Center
12:16PM 37.4469 -107.1236 280° West 370 426 40,000  Level Denver Center
12:17PM 37.4639 -107.2428 280° West 365 420 40,000  Level Denver Center
12:18PM 37.4811 -107.3628 280° West 363 418 40,000  Level Denver Center
12:19PM 37.5011 -107.5056 280° West 371 427 40,000  Level Denver Center
12:20PM 37.5175 -107.6283 280° West 371 427 40,000  Level Denver Center
12:22PM 37.5381 -107.7697 280° West 367 422 40,000  Level Denver Center
12:23PM 37.5542 -107.8936 279° West 371 427 40,000  Level Denver Center
12:24PM 37.5742 -108.0369 280° West 374 430 40,000  Level Denver Center
12:25PM 37.5906 -108.1636 279° West 380 437 40,000 -600 Level Denver Center
12:26PM 37.6094 -108.3094 279° West 379 436 38,800 -1,020 Descending Denver Center
12:27PM 37.6264 -108.4375 280° West 386 444 38,000 -420 Descending Denver Center
12:28PM 37.6461 -108.5872 279° West 386 444 38,000  Level Denver Center
12:29PM 37.6628 -108.7178 279° West 392 451 38,000  Level Denver Center
12:30PM 37.6817 -108.8661 279° West 389 448 38,000  Level Denver Center
12:31PM 37.6981 -108.9928 279° West 384 442 38,000  Level Denver Center
12:32PM 37.7169 -109.1425 279° West 387 445 38,000  Level Denver Center
12:33PM 37.7339 -109.2714 279° West 389 448 38,000  Level Denver Center
12:34PM 37.7486 -109.4000 278° West 387 445 38,000  Level Denver Center
12:35PM 37.7667 -109.5472 279° West 383 441 38,000  Level Denver Center
12:36PM 37.7828 -109.6767 279° West 390 449 38,000  Level Denver Center
12:37PM 37.7997 -109.8267 278° West 386 444 38,000  Level Denver Center
12:38PM 37.8153 -109.9558 279° West 390 449 38,000  Level Denver Center
12:39PM 37.8328 -110.1075 278° West 394 453 38,000  Level Denver Center
12:40PM 37.8478 -110.2383 278° West 394 453 38,000  Level Denver Center
12:41PM 37.8653 -110.3914 278° West 395 455 38,000  Level Denver Center
12:42PM 37.8797 -110.5219 278° West 393 452 38,000  Level Denver Center
12:43PM 37.8964 -110.6714 278° West 384 442 38,000  Level Denver Center
12:44PM 37.9114 -110.8081 278° West 392 451 38,000  Level Denver Center
12:45PM 37.9258 -110.9403 278° West 380 437 38,000  Level Denver Center
12:46PM 37.9394 -111.0733 277° West 382 440 38,000  Level Denver Center
12:47PM 37.9578 -111.2331 278° West 384 442 38,000  Level Salt Lake Center
12:48PM 37.9731 -111.3700 278° West 390 449 38,000  Level Salt Lake Center
12:49PM 37.9869 -111.5036 278° West 388 447 38,000  Level Denver Center
12:50PM 38.0008 -111.6375 278° West 385 443 38,000  Level Denver Center
12:51PM 38.0125 -111.7733 276° West 386 444 38,000  Level Salt Lake Center
12:53PM 38.0275 -111.9108 278° West 392 451 38,000  Level Salt Lake Center
12:54PM 38.0433 -112.0481 278° West 394 453 38,000  Level Salt Lake Center
12:55PM 38.0581 -112.2089 277° West 387 445 38,000  Level Salt Lake Center
12:56PM 38.0711 -112.3419 277° West 384 442 38,000  Level Salt Lake Center
12:57PM 38.0833 -112.4753 277° West 383 441 38,000  Level Salt Lake Center
12:58PM 38.0964 -112.6089 277° West 384 442 38,000  Level Salt Lake Center
12:59PM 38.1083 -112.7431 276° West 385 443 38,000  Level Salt Lake Center
01:00PM 38.1217 -112.8772 277° West 386 444 38,000  Level Salt Lake Center
01:01PM 38.1333 -113.0128 276° West 388 447 38,000  Level Salt Lake Center
01:02PM 38.1481 -113.1772 277° West 393 452 38,000  Level Salt Lake Center
01:03PM 38.1608 -113.3111 277° West 388 447 38,000  Level Salt Lake Center
01:04PM 38.1725 -113.4472 276° West 389 448 38,000  Level Salt Lake Center
01:05PM 38.1836 -113.5847 276° West 393 452 38,000  Level Salt Lake Center
01:06PM 38.1958 -113.7203 277° West 389 448 38,000  Level Salt Lake Center
01:07PM 38.2069 -113.8556 276° West 387 445 38,000  Level Salt Lake Center
01:08PM 38.2178 -113.9900 276° West 384 442 38,000  Level Salt Lake Center
01:09PM 38.2317 -114.1525 276° West 387 445 38,000  Level Salt Lake Center
01:10PM 38.2419 -114.2878 276° West 386 444 38,000  Level Salt Lake Center
01:11PM 38.2528 -114.4231 276° West 386 444 38,000  Level Salt Lake Center
01:12PM 38.2664 -114.5583 277° West 386 444 38,000  Level Salt Lake Center
01:13PM 38.2800 -114.6939 277° West 389 448 38,000  Level Salt Lake Center
01:14PM 38.2928 -114.8311 277° West 391 450 38,000  Level Salt Lake Center
01:15PM 38.3058 -114.9672 277° West 389 448 38,000  Level Salt Lake Center
01:16PM 38.3206 -115.1044 278° West 391 450 38,000  Level Salt Lake Center
01:17PM 38.3333 -115.2408 277° West 390 449 38,000  Level Salt Lake Center
01:18PM 38.3478 -115.3950 277° West 395 455 38,000  Level Salt Lake Center
01:19PM 38.3608 -115.5342 277° West 396 456 38,000  Level Salt Lake Center
01:20PM 38.3742 -115.6733 277° West 396 456 38,000  Level Salt Lake Center
01:21PM 38.3867 -115.8122 277° West 395 455 38,000  Level Salt Lake Center
01:22PM 38.3989 -115.9522 276° West 398 458 38,000  Level Salt Lake Center
01:23PM 38.4142 -116.1192 277° West 396 456 38,000  Level Salt Lake Center
01:24PM 38.4156 -116.1469 274° West 394 453 38,000  Level Oakland Center
01:25PM 38.3986 -116.2917 262° West 415 478 38,000  Level Oakland Center
01:26PM 38.3589 -116.4353 251° West 427 491 38,000  Level Oakland Center
01:27PM 38.3217 -116.5819 252° West 433 498 38,000  Level Oakland Center
01:28PM 38.2744 -116.7606 251° West 442 509 38,000  Level Oakland Center
01:29PM 38.2353 -116.9103 252° West 446 513 38,000  Level Oakland Center
01:29PM 38.2117 -116.9997 251° West 448 516 38,000  Level Salt Lake Center
01:30PM 38.1678 -117.1667 252° West 445 512 38,000  Level Salt Lake Center
01:31PM 38.1575 -117.1989 248° West 453 521 38,000  Level Oakland Center
01:32PM 38.1314 -117.3519 258° West 445 512 38,000  Level Oakland Center
01:33PM 38.1092 -117.5358 261° West 440 506 38,000  Level Oakland Center
01:34PM 38.0886 -117.6894 260° West 441 507 38,000  Level Oakland Center
01:35PM 38.0694 -117.8433 261° West 442 509 38,000  Level Oakland Center
01:36PM 38.0489 -117.9975 260° West 442 509 38,000  Level Oakland Center
01:37PM 38.0294 -118.1522 261° West 443 510 38,000  Level Oakland Center
01:38PM 38.0078 -118.3086 260° West 448 516 38,000  Level Oakland Center
01:39PM 37.9869 -118.4625 260° West 445 512 38,000  Level Oakland Center
01:40PM 37.9647 -118.6186 260° West 448 516 38,000  Level Oakland Center
01:41PM 37.9458 -118.7753 261° West 449 517 38,000  Level Oakland Center
01:42PM 37.9275 -118.9311 262° West 447 514 38,000  Level Oakland Center
01:43PM 37.8994 -119.1197 259° West 454 522 38,000  Level Oakland Center
01:44PM 37.8808 -119.2575 260° West 451 519 38,000  Level Oakland Center
01:45PM 37.8575 -119.4161 259° West 455 524 38,000  Level Oakland Center
01:46PM 37.8358 -119.5717 260° West 449 517 38,000  Level Oakland Center
01:47PM 37.8150 -119.7278 260° West 449 517 38,000 -420 Level Oakland Center
01:48PM 37.7875 -119.9181 260° West 456 525 37,200 -1,620 Descending Oakland Center
01:49PM 37.7633 -120.0778 259° West 460 529 34,700 -2,460 Descending Oakland Center
01:50PM 37.7375 -120.2397 259° West 466 536 32,200 -2,460 Descending Oakland Center
01:51PM 37.7139 -120.3986 259° West 461 531 29,800 -2,400 Descending Oakland Center
01:52PM 37.6903 -120.5547 259° West 453 521 27,400 -2,340 Descending Oakland Center
01:53PM 37.6675 -120.7006 259° West 428 493 25,100 -2,280 Descending Oakland Center
01:54PM 37.6500 -120.8500 262° West 412 474 23,000 -2,220 Descending Northern Cal TRACON
01:55PM 37.6167 -121.0000 254° West 410 472 20,600 -2,160 Descending Northern Cal TRACON
01:56PM 37.6167 -121.1167 270° West 408 470 18,700 -2,100 Descending Northern Cal TRACON
01:57PM 37.5833 -121.2833 256° West 395 455 16,400 -2,100 Descending Northern Cal TRACON
01:58PM 37.5833 -121.3833 270° West 384 442 14,600 -2,040 Descending Northern Cal TRACON
01:59PM 37.5667 -121.5167 261° West 376 433 12,600 -1,500 Descending Northern Cal TRACON
02:00PM 37.5333 -121.6333 250° West 334 384 11,700 -1,380 Descending Northern Cal TRACON
02:01PM 37.5167 -121.7333 258° West 315 362 10,000 -1,920 Descending Northern Cal TRACON
02:02PM 37.5333 -121.8333 282° West 306 352 8,100 -1,080 Descending Northern Cal TRACON
02:03PM 37.5333 -121.9500 270° West 299 344 7,900 -900 Descending Northern Cal TRACON
02:04PM 37.5333 -122.0500 270° West 292 336 6,400 -1,440 Descending Northern Cal TRACON
02:05PM 37.5500 -122.1333 284° West 256 295 5,100 -1,500 Descending Northern Cal TRACON
02:05PM 37.5525 -122.1725 275° West 256 295 4,200 -1,800 Descending Oakland Center
02:07PM 37.5747 -122.2422 292° West 229 264 2,500 -1,560 Descending Oakland Center
02:08PM 37.5875 -122.2983 286° West 194 223 1,100 -1,080 Descending Oakland Center
02:09PM 37.6053 -122.3431 297° West 164 189 300 -840 Descending Oakland Center
02:11PM 37.6167 -122.3667 322° Northwest  Level FlightAware Approximate